createdAt,value
2023-02-16T00:01:09.418Z,0
2023-02-16T00:11:08.789Z,0
2023-02-16T00:21:08.671Z,0
2023-02-16T00:31:08.497Z,0
2023-02-16T00:41:08.129Z,0
2023-02-16T00:51:20.436Z,0
2023-02-16T01:01:07.387Z,0
2023-02-16T01:11:06.905Z,0
2023-02-16T01:21:07.260Z,0
2023-02-16T01:31:07.289Z,0
2023-02-16T01:41:06.642Z,0
2023-02-16T01:51:06.185Z,0
2023-02-16T02:01:06.165Z,0
2023-02-16T02:11:06.387Z,0
2023-02-16T02:21:05.730Z,0
2023-02-16T02:31:05.770Z,0
2023-02-16T02:41:05.533Z,0
2023-02-16T02:51:04.713Z,0
2023-02-16T03:02:08.695Z,0
2023-02-16T03:12:07.588Z,0
2023-02-16T03:22:07.483Z,0
2023-02-16T03:32:07.128Z,0
2023-02-16T03:42:05.861Z,0
2023-02-16T03:52:06.174Z,0
2023-02-16T04:02:06.122Z,0
2023-02-16T04:12:06.973Z,0
2023-02-16T04:22:07.523Z,0
2023-02-16T04:32:07.528Z,0
2023-02-16T04:42:08.274Z,0
2023-02-16T04:52:08.974Z,0
2023-02-16T05:02:10.043Z,0
2023-02-16T05:12:09.606Z,0
2023-02-16T05:22:09.542Z,0
2023-02-16T05:32:09.178Z,0
2023-02-16T05:42:09.019Z,0
2023-02-16T05:52:08.261Z,0
2023-02-16T06:02:08.390Z,0
2023-02-16T06:12:16.010Z,0
2023-02-16T06:22:24.101Z,0
2023-02-16T06:32:32.052Z,0
2023-02-16T06:42:41.194Z,0
2023-02-16T06:52:51.739Z,0
2023-02-16T07:03:01.307Z,0
2023-02-16T07:13:10.367Z,0
2023-02-16T07:23:20.539Z,0
2023-02-16T07:33:29.889Z,0
2023-02-16T07:43:39.828Z,0
2023-02-16T07:53:51.554Z,0
2023-02-16T08:04:02.571Z,0
2023-02-16T08:14:15.015Z,9.3
2023-02-16T08:24:24.472Z,9.3
2023-02-16T08:34:36.976Z,9.3
2023-02-16T08:44:44.110Z,9.3
2023-02-16T08:53:10.339Z,9.3
2023-02-16T09:02:09.892Z,0
2023-02-16T09:07:52.759Z,0
2023-02-16T09:11:38.374Z,0
2023-02-16T09:23:36.350Z,98.6
2023-02-16T09:33:50.937Z,101.9
2023-02-16T09:44:05.124Z,101.9
2023-02-16T09:54:17.056Z,107.6
2023-02-16T10:04:26.700Z,107.6
2023-02-16T10:14:34.020Z,107.6
2023-02-16T10:24:45.492Z,107.6
2023-02-16T10:34:59.336Z,120.4
2023-02-16T10:45:13.342Z,118.5
2023-02-16T10:55:26.701Z,121.1
2023-02-16T11:05:39.387Z,122.1
2023-02-16T11:15:52.719Z,123.1
2023-02-16T11:26:05.101Z,123.6
2023-02-16T11:36:17.037Z,124.7
2023-02-16T11:46:28.778Z,125.5
2023-02-16T11:56:40.456Z,125.9
2023-02-16T12:06:52.119Z,127.9
2023-02-16T12:16:59.917Z,127.9
2023-02-16T12:27:05.876Z,127.9
2023-02-16T12:37:10.948Z,127.9
2023-02-16T12:47:15.223Z,127.9
2023-02-16T12:57:18.662Z,127.9
2023-02-16T13:07:22.771Z,127.9
2023-02-16T13:17:26.624Z,127.9
2023-02-16T13:27:29.936Z,127.9
2023-02-16T13:37:33.701Z,127.9
2023-02-16T13:47:37.358Z,127.9
2023-02-16T13:57:41.112Z,127.9
2023-02-16T14:07:45.064Z,126.4
2023-02-16T14:17:48.690Z,125.9
2023-02-16T14:27:52.318Z,123.7
2023-02-16T14:37:55.889Z,122.2
2023-02-16T14:47:58.632Z,121.9
2023-02-16T14:58:00.849Z,124.1
2023-02-16T15:02:07.187Z,0
2023-02-16T15:12:09.395Z,0
2023-02-16T15:22:13.049Z,109.8
2023-02-16T15:32:16.050Z,107.7
2023-02-16T15:42:19.726Z,107.7
2023-02-16T15:52:20.834Z,107.7
2023-02-16T16:02:23.765Z,107.7
2023-02-16T16:12:27.440Z,107.7
2023-02-16T16:22:29.414Z,107.7
2023-02-16T16:32:31.420Z,107.7
2023-02-16T16:42:34.268Z,107.7
2023-02-16T16:52:37.746Z,107.7
2023-02-16T17:02:38.654Z,107.7
2023-02-16T17:12:39.145Z,107.7
2023-02-16T17:22:40.290Z,107.7
2023-02-16T17:32:40.667Z,107.7
2023-02-16T17:42:40.008Z,107.7
2023-02-16T17:52:41.617Z,107.7
2023-02-16T18:02:43.132Z,107.7
2023-02-16T18:12:44.685Z,107.7
2023-02-16T18:22:46.022Z,107.7
2023-02-16T18:32:46.271Z,107.7
2023-02-16T18:42:46.355Z,107.7
2023-02-16T18:52:46.763Z,107.7
2023-02-16T19:02:45.221Z,107.7
2023-02-16T19:12:45.436Z,107.7
2023-02-16T19:22:44.961Z,107.7
2023-02-16T19:32:43.941Z,107.7
2023-02-16T19:42:44.102Z,107.7
2023-02-16T19:52:45.463Z,107.7
2023-02-16T20:02:45.499Z,107.7
2023-02-16T20:12:45.908Z,107.7
2023-02-16T20:22:46.482Z,107.7
2023-02-16T20:32:47.122Z,107.7
2023-02-16T20:42:47.636Z,107.7
2023-02-16T20:52:47.413Z,107.7
2023-02-16T21:02:09.149Z,0
2023-02-16T21:12:08.587Z,0
2023-02-16T21:22:09.858Z,0
2023-02-16T21:32:10.158Z,0
2023-02-16T21:42:11.227Z,0
2023-02-16T21:52:12.572Z,0
2023-02-16T22:02:12.526Z,0
2023-02-16T22:12:14.308Z,0
2023-02-16T22:22:15.954Z,0
2023-02-16T22:32:18.802Z,0
2023-02-16T22:42:20.751Z,0
2023-02-16T22:52:21.191Z,0
2023-02-16T23:02:22.656Z,0
2023-02-16T23:12:22.832Z,0
2023-02-16T23:22:22.264Z,0
2023-02-16T23:32:23.868Z,0
2023-02-16T23:42:23.514Z,0
2023-02-16T23:52:23.443Z,0
